Main page
METAR-TAF:

METAR-TAF

Airports :

Port Bouet Airport

Abidjan, Ivory coast

latitude: 05-15N, longitude: 003-56W, elevation: 7 m

Current weather observation

The report was made 10 minutes ago, at 01:30 UTC
Wind 3 kt from the South
Temperature 24°C
Humidity 94%
Pressure 1015 hPa
Visibility 10 km or more
Few clouds at a height of 1200 ft

METAR: DIAP 150130Z 19003KT 9999 FEW012 24/23 Q1015 NOSIG

Time: 01:40 (01:40 UTC)

Forecast

The report was made 2 hours and 40 minutes ago, at 23:00 UTC
Forecast valid from 15 at 00 UTC to 16 at 06 UTC
Wind 5 kt from the South/Southwest
Visibility 10 km or more
Scattered clouds at a height of 1200 ft
Temporary
from 15 at 05 UTC to 15 at 10 UTC
Broken clouds at a height of 1200 ft
Temporary
from 16 at 02 UTC to 16 at 06 UTC
Broken clouds at a height of 1200 ft

TAF: DIAP 142300Z 1500/1606 20005KT 9999 SCT012 TEMPO 1505/1510 BKN012 TEMPO 1602/1606 BKN012

Weather observations and forecasts of more than 4000 airports (METAR and TAF reports).

The available stations are represented by yellow and red dots on the map.

Hover mouse over dot to see the name of the station.

Then click to see weather observations and forecasts.

To change the map : click on the green buttons with a black cross to zoom in, on the green button with a dash to zoom out, or on the green arrows for adjacent maps.


METAR-TAF: